Norbeck, South Dakota
Current Conditions -  °F | °C
As of 8:53 AM on Thursday 23 Oct 2014 (Local Time) from KABR Reporting Station
Clear Clear  
Wind Chill: 31°   Ceiling: Unl
Heat Index: 36°   Visibility: 10mi
Dew Point: 33°   Wind: 6mph
Humidity: 89%   Direction: 170°S
Pressure: 29.98"   Gusts: NA
Location:  45.0672°N, 99.0996°W
Report Text: KABR 231353Z AUTO 17005KT 10SM CLR 02/01 A2998 RMK AO2 SLP159 T00220006
Loading
Personal Weather Stations






























Interactive Weather Map
Tropical Storm Tracking
New forecast layout! Learn more

10-Day Weather Forecast

Advertisements
Track Severe Weather on mobile